Time;durP1;ratioP1;P1;durP2;ratioP2;P2;SDS_P1;SDS_P2;PMS_P1;PMS_P2;Temp;Humidity;BMP_temperature;BMP_pressure;BME280_temperature;BME280_humidity;BME280_pressure;Samples;Min_cycle;Max_cycle;Signal;HPM_P1;HPM_P2
2021/04/01 00:00:16;;;;;;;14.23;11.60;;;10.30;1.00;;;;;;5071774;28;20888;-72
2021/04/01 00:02:55;;;;;;;12.67;11.47;;;10.30;1.00;;;;;;5071479;28;20197;-72
2021/04/01 00:05:24;;;;;;;13.00;11.60;;;10.30;1.00;;;;;;5064021;28;20427;-70
2021/04/01 00:07:49;;;;;;;13.73;11.90;;;10.20;1.00;;;;;;5067948;28;20917;-70
2021/04/01 00:10:19;;;;;;;14.20;12.10;;;10.20;1.00;;;;;;5072056;28;20460;-71
2021/04/01 00:12:45;;;;;;;13.47;11.50;;;10.20;1.00;;;;;;5072311;28;21094;-71
2021/04/01 00:15:12;;;;;;;13.10;11.77;;;10.10;1.00;;;;;;5071786;28;20553;-72
2021/04/01 00:17:39;;;;;;;12.43;10.50;;;10.10;1.00;;;;;;5071910;28;20552;-71
2021/04/01 00:20:07;;;;;;;13.37;11.97;;;10.10;1.00;;;;;;5071285;28;20496;-71
2021/04/01 00:22:32;;;;;;;13.97;12.67;;;10.00;1.00;;;;;;5071456;28;20458;-72
2021/04/01 00:24:58;;;;;;;13.93;12.27;;;9.90;1.00;;;;;;5072270;28;20444;-72
2021/04/01 00:27:24;;;;;;;13.57;12.17;;;9.90;1.00;;;;;;5072079;28;20226;-72
2021/04/01 00:29:49;;;;;;;16.00;12.93;;;9.80;1.00;;;;;;5077641;28;20181;-72
2021/04/01 00:32:15;;;;;;;14.20;12.80;;;9.80;1.00;;;;;;5073018;28;20427;-72
2021/04/01 00:34:41;;;;;;;16.23;13.17;;;9.70;1.00;;;;;;5070732;28;20657;-73
2021/04/01 00:37:06;;;;;;;15.40;12.63;;;9.70;1.00;;;;;;5072669;28;20192;-72
2021/04/01 00:39:32;;;;;;;14.70;12.80;;;9.60;1.00;;;;;;5070265;28;20177;-71
2021/04/01 00:41:57;;;;;;;20.93;13.97;;;9.60;1.00;;;;;;5072087;28;20552;-71
2021/04/01 00:44:23;;;;;;;15.90;14.20;;;9.50;1.00;;;;;;5071639;28;20971;-72
2021/04/01 00:46:49;;;;;;;16.63;12.80;;;9.50;1.00;;;;;;5071443;28;20223;-72
2021/04/01 00:49:15;;;;;;;19.53;15.83;;;9.40;1.00;;;;;;5071624;28;20188;-72
2021/04/01 00:51:41;;;;;;;15.03;13.53;;;9.40;1.00;;;;;;5071206;28;20183;-72
2021/04/01 00:54:07;;;;;;;19.20;13.17;;;9.40;1.00;;;;;;5071656;28;20891;-72
2021/04/01 00:56:33;;;;;;;16.63;13.43;;;9.40;1.00;;;;;;5070831;28;20585;-72
2021/04/01 00:59:00;;;;;;;15.43;13.47;;;9.30;1.00;;;;;;5070450;28;20431;-72
2021/04/01 01:01:45;;;;;;;13.83;11.93;;;9.30;1.00;;;;;;5071683;28;20485;-72
2021/04/01 01:04:12;;;;;;;14.30;12.37;;;9.30;1.00;;;;;;5067433;28;20604;-72
2021/04/01 01:06:39;;;;;;;17.77;14.03;;;9.30;1.00;;;;;;5063480;28;20408;-72
2021/04/01 01:09:06;;;;;;;15.20;13.67;;;9.20;1.00;;;;;;5071068;28;20509;-72
2021/04/01 01:11:33;;;;;;;15.33;12.80;;;9.20;1.00;;;;;;5071599;28;20474;-72
2021/04/01 01:14:04;;;;;;;16.67;12.37;;;9.10;1.00;;;;;;5071485;28;20529;-72
2021/04/01 01:16:31;;;;;;;14.40;12.90;;;9.10;1.00;;;;;;5071983;28;20391;-72
2021/04/01 01:18:57;;;;;;;15.73;12.63;;;9.10;1.00;;;;;;5070644;28;20979;-72
2021/04/01 01:21:22;;;;;;;17.30;12.13;;;9.10;1.00;;;;;;5071496;28;20443;-72
2021/04/01 01:23:50;;;;;;;17.30;13.23;;;9.10;1.00;;;;;;5069783;28;20263;-72
2021/04/01 01:26:16;;;;;;;14.80;12.57;;;9.00;1.00;;;;;;5067218;28;20201;-72
2021/04/01 01:28:42;;;;;;;14.77;12.50;;;9.00;1.00;;;;;;5076061;28;20466;-71
2021/04/01 01:31:08;;;;;;;14.20;12.63;;;9.00;1.00;;;;;;5080794;28;20404;-71
2021/04/01 01:33:44;;;;;;;15.50;12.60;;;9.00;1.00;;;;;;5070900;28;20955;-72
2021/04/01 01:36:12;;;;;;;16.43;12.83;;;9.00;1.00;;;;;;5068075;28;20431;-72
2021/04/01 01:38:37;;;;;;;16.23;12.83;;;8.90;1.00;;;;;;5065866;28;20441;-71
2021/04/01 01:41:04;;;;;;;17.97;12.60;;;8.90;1.00;;;;;;5070778;28;20430;-71
2021/04/01 01:43:30;;;;;;;15.73;11.97;;;8.90;1.00;;;;;;5070155;28;20466;-71
2021/04/01 01:45:56;;;;;;;18.13;12.80;;;8.90;1.00;;;;;;5071095;28;20822;-71
2021/04/01 01:48:21;;;;;;;13.40;11.50;;;8.80;1.00;;;;;;5069903;28;20470;-72
2021/04/01 01:50:47;;;;;;;16.83;13.17;;;8.80;1.00;;;;;;5070993;28;20192;-71
2021/04/01 01:53:13;;;;;;;13.60;12.20;;;8.70;1.00;;;;;;5075346;28;20670;-71
2021/04/01 01:55:40;;;;;;;13.97;12.30;;;8.70;1.00;;;;;;5073360;28;20469;-72
2021/04/01 01:58:06;;;;;;;17.03;13.20;;;8.60;1.00;;;;;;5069236;28;20185;-72
2021/04/01 02:00:34;;;;;;;14.40;12.90;;;8.60;1.00;;;;;;5070408;28;20439;-71
2021/04/01 02:03:02;;;;;;;14.50;12.70;;;8.50;1.00;;;;;;5068803;28;20504;-71
2021/04/01 02:05:29;;;;;;;14.90;13.30;;;8.50;1.00;;;;;;5070744;28;20415;-71
2021/04/01 02:07:55;;;;;;;17.23;13.20;;;8.50;1.00;;;;;;5069270;28;20433;-72
2021/04/01 02:10:25;;;;;;;14.17;12.67;;;8.40;1.00;;;;;;5069951;28;20430;-71
2021/04/01 02:12:52;;;;;;;15.57;13.50;;;8.40;1.00;;;;;;5069273;28;20465;-72
2021/04/01 02:15:22;;;;;;;17.23;13.53;;;8.40;1.00;;;;;;5069235;28;20453;-73
2021/04/01 02:17:48;;;;;;;15.17;13.57;;;8.30;1.00;;;;;;5067722;28;20430;-71
2021/04/01 02:20:13;;;;;;;16.47;13.07;;;8.40;1.00;;;;;;5067883;28;20450;-72
2021/04/01 02:22:39;;;;;;;15.90;14.17;;;8.40;1.00;;;;;;5070389;28;20301;-72
2021/04/01 02:25:05;;;;;;;19.90;13.50;;;8.30;1.00;;;;;;5069140;28;20180;-72
2021/04/01 02:27:32;;;;;;;17.30;13.73;;;8.30;1.00;;;;;;5070088;28;20343;-71
2021/04/01 02:29:58;;;;;;;18.40;13.70;;;8.20;1.00;;;;;;5069589;28;20476;-72
2021/04/01 02:32:24;;;;;;;15.10;13.60;;;8.20;1.00;;;;;;5069045;28;20523;-71
2021/04/01 02:34:49;;;;;;;15.57;13.90;;;8.20;1.00;;;;;;5068891;28;20791;-72
2021/04/01 02:37:15;;;;;;;16.23;13.13;;;8.10;1.00;;;;;;5069549;28;20826;-72
2021/04/01 02:39:41;;;;;;;19.07;14.50;;;8.10;1.00;;;;;;5068938;28;20184;-72
2021/04/01 02:42:07;;;;;;;17.20;13.83;;;8.20;1.00;;;;;;5069316;28;20470;-72
2021/04/01 02:44:33;;;;;;;19.33;13.70;;;8.10;1.00;;;;;;5070519;28;20787;-72
2021/04/01 02:46:59;;;;;;;17.03;14.00;;;8.10;1.00;;;;;;5069184;28;20492;-71
2021/04/01 02:49:24;;;;;;;17.73;14.43;;;8.10;1.00;;;;;;5069329;28;20219;-72
2021/04/01 02:51:50;;;;;;;15.27;13.67;;;8.10;1.00;;;;;;5070115;28;20185;-71
2021/04/01 02:54:15;;;;;;;17.33;14.27;;;8.10;1.00;;;;;;5066248;28;20183;-71
2021/04/01 02:56:41;;;;;;;17.40;14.10;;;8.00;1.00;;;;;;5069298;28;20231;-72
2021/04/01 02:59:08;;;;;;;18.80;13.70;;;8.00;1.00;;;;;;5070718;28;20192;-71
2021/04/01 03:01:34;;;;;;;18.03;13.87;;;8.00;1.00;;;;;;5072387;28;20240;-72
2021/04/01 03:04:02;;;;;;;15.17;12.90;;;8.00;1.00;;;;;;5066556;28;20478;-71
2021/04/01 03:06:28;;;;;;;16.33;13.13;;;8.00;1.00;;;;;;5068307;28;20180;-72
2021/04/01 03:08:54;;;;;;;15.53;13.43;;;7.90;1.00;;;;;;5069096;28;20464;-71
2021/04/01 03:11:21;;;;;;;17.93;13.77;;;7.90;1.00;;;;;;5069464;28;20418;-72
2021/04/01 03:13:46;;;;;;;15.53;13.80;;;7.90;1.00;;;;;;5068383;28;20638;-70
2021/04/01 03:16:12;;;;;;;18.87;13.30;;;7.90;1.00;;;;;;5069662;28;20427;-71
2021/04/01 03:18:39;;;;;;;15.27;13.27;;;7.90;1.00;;;;;;5067951;28;20223;-72
2021/04/01 03:21:05;;;;;;;14.53;13.00;;;7.90;1.00;;;;;;5068933;28;20294;-72
2021/04/01 03:23:30;;;;;;;22.53;14.10;;;7.80;1.00;;;;;;5068461;28;20437;-72
2021/04/01 03:25:57;;;;;;;17.33;15.40;;;7.80;1.00;;;;;;5068948;28;20503;-71
2021/04/01 03:28:22;;;;;;;16.50;13.90;;;7.80;1.00;;;;;;5068427;28;20188;-71
2021/04/01 03:31:03;;;;;;;16.53;14.30;;;7.80;1.00;;;;;;5068756;28;20442;-71
2021/04/01 03:33:29;;;;;;;16.35;13.48;;;7.70;1.00;;;;;;5067924;28;20196;-71
2021/04/01 03:35:55;;;;;;;19.57;14.83;;;7.70;1.00;;;;;;5068111;28;20189;-71
2021/04/01 03:38:21;;;;;;;16.50;13.60;;;7.70;1.00;;;;;;5068578;28;20515;-71
2021/04/01 03:40:47;;;;;;;17.10;13.90;;;7.70;1.00;;;;;;5068976;28;20802;-72
2021/04/01 03:43:13;;;;;;;15.00;13.00;;;7.70;1.00;;;;;;5068082;28;20212;-72
2021/04/01 03:45:39;;;;;;;18.90;14.13;;;7.70;1.00;;;;;;5068852;28;20472;-72
2021/04/01 03:48:05;;;;;;;18.40;14.00;;;7.60;1.00;;;;;;5068048;28;20465;-72
2021/04/01 03:50:31;;;;;;;16.53;13.80;;;7.60;1.00;;;;;;5067194;28;20452;-71
2021/04/01 03:52:56;;;;;;;17.03;14.50;;;7.60;1.00;;;;;;5068370;28;20842;-71
2021/04/01 03:55:38;;;;;;;16.07;14.23;;;7.60;1.00;;;;;;5069145;28;20230;-71
2021/04/01 04:14:24;;;;;;;15.93;13.53;;;7.50;1.00;;;;;;5067167;28;20176;-71
2021/04/01 04:16:20;;;;;;;16.17;14.13;;;7.50;1.00;;;;;;5053381;28;20460;-71
2021/04/01 04:18:46;;;;;;;18.20;14.27;;;7.50;1.00;;;;;;5066534;28;20454;-70
2021/04/01 04:21:13;;;;;;;20.40;14.90;;;7.50;1.00;;;;;;5074546;28;20183;-71
2021/04/01 04:23:42;;;;;;;14.93;13.40;;;7.50;1.00;;;;;;5072439;28;20615;-71
2021/04/01 04:26:09;;;;;;;15.27;12.53;;;7.50;1.00;;;;;;5066914;28;20432;-71
2021/04/01 04:28:35;;;;;;;16.50;14.20;;;7.50;1.00;;;;;;5063772;28;22262;-71
2021/04/01 04:31:02;;;;;;;15.97;14.23;;;7.50;1.00;;;;;;5073822;28;20421;-71
2021/04/01 04:33:28;;;;;;;17.48;15.30;;;7.50;1.00;;;;;;5066317;28;20488;-72
2021/04/01 04:35:54;;;;;;;17.77;14.80;;;7.50;1.00;;;;;;5068878;28;20178;-71
2021/04/01 04:38:20;;;;;;;18.27;15.23;;;7.40;1.00;;;;;;5068730;28;20183;-72
2021/04/01 04:40:46;;;;;;;17.00;15.17;;;7.40;2.10;;;;;;5068482;28;20187;-71
2021/04/01 04:43:12;;;;;;;20.47;15.47;;;7.40;10.00;;;;;;5072084;28;20200;-71
2021/04/01 04:45:38;;;;;;;17.77;14.33;;;7.40;18.90;;;;;;5070678;28;20443;-70
2021/04/01 04:48:04;;;;;;;16.83;14.67;;;7.40;22.90;;;;;;5071722;28;20184;-70
2021/04/01 04:50:29;;;;;;;16.80;14.20;;;7.40;24.80;;;;;;5069080;28;20192;-70
2021/04/01 04:52:55;;;;;;;21.93;16.00;;;7.40;22.10;;;;;;5072436;28;20258;-70
2021/04/01 04:55:21;;;;;;;18.80;14.00;;;7.40;11.90;;;;;;5070848;28;20176;-72
2021/04/01 04:57:50;;;;;;;18.63;15.83;;;7.40;9.70;;;;;;5072272;28;20187;-71
2021/04/01 05:05:29;;;;;;;21.13;16.80;;;7.50;1.00;;;;;;5066007;28;20636;-70
2021/04/01 05:07:55;;;;;;;22.87;16.27;;;7.50;2.70;;;;;;5071378;28;20221;-71
2021/04/01 05:10:20;;;;;;;21.87;15.70;;;7.50;1.00;;;;;;5071044;28;20633;-70
2021/04/01 05:12:52;;;;;;;18.57;15.87;;;7.60;1.10;;;;;;5069783;28;20211;-71
2021/04/01 05:15:20;;;;;;;20.53;14.70;;;7.60;4.50;;;;;;5071120;28;20298;-71
2021/04/01 05:17:45;;;;;;;21.20;15.60;;;7.60;5.60;;;;;;5071212;28;20520;-71
2021/04/01 05:20:12;;;;;;;20.00;15.00;;;7.60;3.10;;;;;;5070845;28;20460;-71
2021/04/01 05:23:02;;;;;;;21.13;15.93;;;7.70;12.40;;;;;;5069587;28;20227;-71
2021/04/01 05:25:28;;;;;;;18.00;14.13;;;7.70;11.50;;;;;;5070659;28;20441;-71
2021/04/01 05:27:58;;;;;;;17.40;14.43;;;7.80;11.50;;;;;;5061979;28;20466;-71
2021/04/01 05:30:24;;;;;;;17.27;15.13;;;7.80;15.50;;;;;;5070719;28;20433;-71
2021/04/01 05:32:49;;;;;;;19.80;14.33;;;7.90;14.20;;;;;;5071551;28;20506;-71
2021/04/01 05:35:16;;;;;;;20.07;15.63;;;7.90;8.00;;;;;;5069452;28;20554;-71
2021/04/01 05:37:42;;;;;;;21.27;15.33;;;8.00;1.00;;;;;;5069319;28;20188;-71
2021/04/01 05:40:10;;;;;;;16.90;14.90;;;8.10;1.00;;;;;;5069310;28;20801;-70
2021/04/01 05:42:38;;;;;;;17.37;14.10;;;8.10;1.00;;;;;;5069534;28;20527;-70
2021/04/01 05:45:13;;;;;;;17.80;14.73;;;8.20;1.00;;;;;;5070098;28;20449;-70
2021/04/01 05:47:52;;;;;;;14.97;13.37;;;8.20;1.00;;;;;;5071075;28;20422;-69
2021/04/01 05:56:30;;;;;;;15.90;13.63;;;8.50;1.00;;;;;;5070431;28;20470;-70
2021/04/01 06:04:08;;;;;;;19.27;14.30;;;8.80;1.00;;;;;;5069108;28;20482;-70
2021/04/01 06:06:43;;;;;;;16.33;13.20;;;8.90;1.00;;;;;;5069870;28;20445;-71
2021/04/01 06:09:23;;;;;;;16.10;14.10;;;8.90;1.00;;;;;;5070828;28;20477;-71
2021/04/01 06:11:54;;;;;;;23.20;13.67;;;9.00;1.00;;;;;;5053396;28;20407;-71
2021/04/01 06:14:32;;;;;;;15.57;13.30;;;9.00;1.00;;;;;;5067133;28;20431;-71
2021/04/01 06:17:01;;;;;;;15.30;13.70;;;9.20;1.00;;;;;;5060588;28;20782;-71
2021/04/01 06:19:33;;;;;;;14.23;12.70;;;9.30;1.00;;;;;;5059990;28;20867;-71
2021/04/01 06:22:06;;;;;;;19.83;14.60;;;9.40;1.00;;;;;;5050881;28;21042;-70
2021/04/01 06:24:33;;;;;;;19.57;13.47;;;9.60;1.00;;;;;;5057141;28;20492;-72
2021/04/01 06:29:36;;;;;;;16.33;13.50;;;9.80;99.90;;;;;;5060462;28;20448;-75
2021/04/01 06:32:03;;;;;;;18.77;14.17;;;9.90;29.70;;;;;;5059281;28;20435;-72
2021/04/01 06:34:40;;;;;;;16.87;13.13;;;10.10;1.00;;;;;;5059245;28;21402;-73
2021/04/01 06:37:37;;;;;;;16.37;12.87;;;10.20;99.90;;;;;;5059602;28;20439;-72
2021/04/01 06:40:04;;;;;;;17.90;13.90;;;10.30;1.00;;;;;;5058638;28;21475;-73
2021/04/01 06:42:41;;;;;;;23.43;13.87;;;10.40;1.00;;;;;;5060268;28;20495;-73
2021/04/01 06:45:11;;;;;;;16.33;14.67;;;10.50;1.00;;;;;;5059851;28;20446;-73
2021/04/01 06:47:39;;;;;;;14.83;13.20;;;10.70;1.00;;;;;;5060008;28;20434;-73
2021/04/01 06:52:58;;;;;;;14.53;12.90;;;11.00;1.00;;;;;;5059508;28;20790;-73
2021/04/01 06:55:28;;;;;;;15.67;13.83;;;11.30;99.90;;;;;;5059429;28;20450;-73
2021/04/01 07:03:22;;;;;;;14.47;12.97;;;12.00;1.00;;;;;;5058687;28;21031;-71
2021/04/01 07:08:24;;;;;;;14.00;12.37;;;12.40;1.00;;;;;;5057595;28;20436;-72
2021/04/01 07:13:20;;;;;;;16.53;12.90;;;12.60;1.00;;;;;;5060030;28;20930;-71
2021/04/01 07:15:52;;;;;;;15.53;13.30;;;12.70;99.90;;;;;;5058013;28;20174;-71
2021/04/01 07:32:37;;;;;;;14.50;13.00;;;13.00;99.90;;;;;;5035683;28;20524;-66
2021/04/01 07:46:36;;;;;;;15.50;13.93;;;13.60;99.90;;;;;;5021113;28;20434;-72
2021/04/01 07:49:05;;;;;;;16.10;14.27;;;13.70;99.90;;;;;;5057804;28;20526;-71
2021/04/01 07:54:04;;;;;;;15.63;14.03;;;14.00;99.90;;;;;;5060367;28;21089;-72
2021/04/01 07:56:36;;;;;;;15.00;13.40;;;14.30;48.40;;;;;;5060382;28;20489;-72
2021/04/01 08:04:31;;;;;;;15.53;13.93;;;14.80;1.00;;;;;;5058982;28;20471;-72
2021/04/01 08:07:14;;;;;;;15.33;13.80;;;15.20;1.00;;;;;;5060368;28;20451;-70
2021/04/01 08:09:43;;;;;;;20.13;15.13;;;15.60;1.00;;;;;;5060272;28;21422;-69
2021/04/01 08:12:19;;;;;;;17.73;14.30;;;15.80;1.00;;;;;;5061644;28;21079;-67
2021/04/01 08:14:54;;;;;;;16.03;13.40;;;16.20;1.00;;;;;;5067798;28;20463;-68
2021/04/01 08:17:24;;;;;;;15.50;13.30;;;16.20;1.00;;;;;;5072628;28;20520;-68
2021/04/01 08:19:51;;;;;;;15.77;14.20;;;16.20;1.00;;;;;;5072012;28;20427;-68
2021/04/01 08:22:22;;;;;;;16.90;15.20;;;16.10;1.00;;;;;;5071027;28;20472;-68
2021/04/01 08:24:56;;;;;;;15.60;14.00;;;16.10;1.00;;;;;;5071818;28;21224;-67
2021/04/01 08:35:24;;;;;;;17.07;14.33;;;16.30;1.00;;;;;;5073063;28;20460;-69
2021/04/01 08:38:13;;;;;;;16.13;14.50;;;16.40;1.00;;;;;;5076914;28;20423;-68
2021/04/01 08:40:41;;;;;;;14.90;13.50;;;16.60;1.00;;;;;;5062022;28;20429;-69
2021/04/01 08:43:37;;;;;;;16.10;14.53;;;16.60;1.00;;;;;;5072631;28;20464;-69
2021/04/01 08:46:20;;;;;;;15.57;14.03;;;16.60;1.00;;;;;;5071597;28;20419;-69
2021/04/01 08:49:03;;;;;;;16.33;14.60;;;16.60;1.00;;;;;;5055814;28;20423;-69
2021/04/01 08:51:34;;;;;;;17.90;15.03;;;16.70;1.00;;;;;;5070701;28;20773;-68
2021/04/01 08:54:09;;;;;;;16.47;14.87;;;16.80;1.00;;;;;;5072065;28;20414;-69
2021/04/01 08:56:43;;;;;;;16.00;14.40;;;16.70;1.00;;;;;;5071966;28;20516;-69
2021/04/01 08:59:16;;;;;;;17.63;15.07;;;16.90;99.90;;;;;;5071501;28;20426;-68
2021/04/01 09:01:42;;;;;;;16.90;15.10;;;16.70;99.90;;;;;;5069880;28;20468;-68
2021/04/01 09:04:09;;;;;;;18.87;14.67;;;16.70;99.90;;;;;;5058605;28;20457;-69
2021/04/01 09:06:42;;;;;;;15.47;13.87;;;16.90;99.90;;;;;;5071889;28;20430;-69
2021/04/01 09:09:24;;;;;;;16.63;13.57;;;17.20;99.90;;;;;;5072353;28;20461;-70
2021/04/01 09:11:55;;;;;;;15.40;13.47;;;17.50;99.90;;;;;;5067806;28;20427;-68
2021/04/01 09:14:34;;;;;;;15.37;13.70;;;17.60;99.90;;;;;;5061731;28;20504;-68
2021/04/01 09:17:08;;;;;;;14.70;13.23;;;17.70;99.90;;;;;;5060198;28;20461;-70
2021/04/01 09:19:35;;;;;;;15.63;13.83;;;17.90;99.90;;;;;;5062320;28;20429;-72
2021/04/01 09:22:00;;;;;;;15.83;13.33;;;18.00;99.90;;;;;;5059242;28;20471;-71
2021/04/01 09:24:28;;;;;;;15.20;13.60;;;17.90;99.90;;;;;;5061310;28;20485;-72
2021/04/01 09:26:55;;;;;;;15.93;13.37;;;18.00;99.90;;;;;;5063627;28;20177;-72
2021/04/01 09:29:21;;;;;;;19.20;14.50;;;18.30;99.90;;;;;;5059759;28;20431;-70
2021/04/01 09:31:59;;;;;;;17.10;14.77;;;18.40;99.90;;;;;;5060936;28;20443;-71
2021/04/01 09:34:26;;;;;;;21.07;13.50;;;18.40;99.90;;;;;;5059800;28;20440;-70
2021/04/01 09:36:53;;;;;;;17.97;14.67;;;18.60;99.90;;;;;;5059846;28;20454;-73
2021/04/01 09:39:30;;;;;;;14.83;13.30;;;18.80;99.90;;;;;;5053946;28;20944;-69
2021/04/01 09:42:03;;;;;;;16.40;14.20;;;19.10;99.90;;;;;;5059140;28;20467;-69
2021/04/01 09:44:29;;;;;;;16.93;14.60;;;19.30;99.90;;;;;;5058237;28;20428;-70
2021/04/01 09:47:11;;;;;;;16.40;14.67;;;19.50;99.90;;;;;;5060301;28;20429;-70
2021/04/01 09:49:51;;;;;;;16.37;13.30;;;19.70;99.90;;;;;;5059915;28;20192;-69
2021/04/01 09:52:26;;;;;;;17.20;14.00;;;20.00;99.90;;;;;;5057928;28;20423;-71
2021/04/01 09:54:58;;;;;;;15.33;13.57;;;20.50;99.90;;;;;;5055217;28;21395;-73
2021/04/01 09:57:38;;;;;;;15.93;13.03;;;20.90;99.90;;;;;;5060613;28;20506;-72
2021/04/01 10:00:16;;;;;;;16.30;13.43;;;21.10;99.90;;;;;;5059697;28;20435;-71
2021/04/01 10:02:46;;;;;;;15.13;13.63;;;21.60;99.90;;;;;;5060530;28;21015;-72
2021/04/01 10:05:15;;;;;;;18.10;14.07;;;21.90;99.90;;;;;;5057842;28;20470;-73
2021/04/01 10:07:55;;;;;;;16.70;13.53;;;22.40;99.90;;;;;;5068000;28;20450;-75
2021/04/01 10:10:34;;;;;;;16.27;14.67;;;22.80;99.90;;;;;;5068877;28;20423;-74
2021/04/01 10:12:59;;;;;;;22.33;15.20;;;23.50;99.90;;;;;;5068577;28;20518;-72
2021/04/01 10:15:30;;;;;;;18.23;14.00;;;23.80;99.90;;;;;;5067513;28;20562;-72
2021/04/01 10:17:59;;;;;;;16.07;14.37;;;24.40;99.90;;;;;;5069194;28;20173;-73
2021/04/01 10:20:25;;;;;;;22.23;15.13;;;24.80;99.90;;;;;;5066660;28;20424;-74
2021/04/01 10:22:51;;;;;;;15.50;13.90;;;24.90;99.90;;;;;;5067623;28;20467;-73
2021/04/01 10:27:55;;;;;;;18.80;14.53;;;25.00;99.90;;;;;;5066731;28;20268;-70
2021/04/01 10:30:22;;;;;;;17.30;14.87;;;24.50;99.90;;;;;;5069156;28;20905;-69
2021/04/01 10:32:48;;;;;;;17.07;13.60;;;24.10;99.90;;;;;;5068556;28;20488;-71
2021/04/01 10:35:16;;;;;;;15.87;14.10;;;23.60;99.90;;;;;;5068021;28;20827;-70
2021/04/01 10:37:48;;;;;;;16.33;13.50;;;23.50;99.90;;;;;;5066653;28;20174;-71
2021/04/01 10:40:15;;;;;;;22.40;15.60;;;23.30;99.90;;;;;;5064453;28;20435;-74
2021/04/01 10:42:46;;;;;;;17.27;14.63;;;23.20;99.90;;;;;;5060312;28;20563;-73
2021/04/01 10:45:15;;;;;;;21.00;14.90;;;23.10;99.90;;;;;;5061940;28;20428;-69
2021/04/01 10:48:00;;;;;;;20.53;15.60;;;23.10;99.90;;;;;;5064884;28;20435;-70
2021/04/01 10:50:27;;;;;;;16.97;13.93;;;23.00;99.90;;;;;;5065855;28;20430;-72
2021/04/01 10:52:55;;;;;;;22.73;15.17;;;22.90;99.90;;;;;;5067511;28;20612;-70
2021/04/01 10:55:30;;;;;;;20.13;14.33;;;22.90;99.90;;;;;;5068575;28;20431;-73
2021/04/01 10:58:11;;;;;;;20.40;15.00;;;23.00;99.90;;;;;;5065613;28;20431;-71
2021/04/01 11:00:38;;;;;;;18.37;15.23;;;23.20;99.90;;;;;;5062194;28;20433;-70
2021/04/01 11:03:06;;;;;;;22.07;14.77;;;23.70;99.90;;;;;;5067713;28;20496;-71
2021/04/01 11:05:35;;;;;;;19.20;15.27;;;24.30;99.90;;;;;;5062758;28;20424;-73
2021/04/01 11:08:06;;;;;;;18.53;14.70;;;24.90;99.90;;;;;;5052193;28;20469;-74
2021/04/01 11:10:33;;;;;;;17.20;15.40;;;25.60;99.90;;;;;;5063564;28;20419;-73
2021/04/01 11:13:02;;;;;;;19.17;15.03;;;26.00;99.90;;;;;;5066370;28;20423;-71
2021/04/01 11:15:33;;;;;;;16.83;15.07;;;26.50;99.90;;;;;;5066433;28;20423;-73
2021/04/01 11:18:19;;;;;;;18.83;15.63;;;26.70;99.90;;;;;;5064130;28;20419;-72
2021/04/01 11:20:49;;;;;;;17.40;15.60;;;26.60;99.90;;;;;;5065436;28;20450;-71
2021/04/01 11:23:20;;;;;;;19.70;16.80;;;26.80;99.90;;;;;;5063946;28;20487;-71
2021/04/01 11:25:51;;;;;;;20.50;16.70;;;27.00;99.90;;;;;;5066779;28;20419;-72
2021/04/01 11:28:20;;;;;;;23.53;18.87;;;27.10;99.90;;;;;;5066589;28;20407;-71
2021/04/01 11:30:52;;;;;;;19.50;16.00;;;27.60;99.90;;;;;;5064820;28;20416;-71
2021/04/01 11:33:20;;;;;;;20.67;16.77;;;27.30;99.90;;;;;;5068971;28;20834;-71
2021/04/01 11:35:49;;;;;;;20.33;17.00;;;27.50;99.90;;;;;;5063449;28;20485;-72
2021/04/01 11:38:24;;;;;;;22.50;17.17;;;27.70;99.90;;;;;;5065323;28;20447;-71
2021/04/01 11:40:58;;;;;;;18.80;16.80;;;28.00;99.90;;;;;;5062941;28;20414;-73
2021/04/01 11:43:30;;;;;;;21.30;17.40;;;28.60;99.90;;;;;;5063436;28;20462;-69
2021/04/01 11:45:57;;;;;;;19.50;16.43;;;29.20;99.90;;;;;;5063782;28;20432;-68
2021/04/01 11:48:23;;;;;;;20.43;17.17;;;29.60;99.90;;;;;;5062475;28;20427;-69
2021/04/01 11:50:51;;;;;;;20.00;17.77;;;29.80;99.90;;;;;;5063345;28;20415;-67
2021/04/01 11:53:16;;;;;;;21.27;17.60;;;29.70;99.90;;;;;;5062636;28;20203;-68
2021/04/01 11:55:53;;;;;;;18.97;16.97;;;29.20;99.90;;;;;;5062724;28;20439;-68
2021/04/01 11:58:21;;;;;;;21.80;17.27;;;29.30;99.90;;;;;;5066529;28;20176;-69
2021/04/01 12:00:47;;;;;;;19.40;17.27;;;29.00;99.90;;;;;;5060842;28;20415;-68
2021/04/01 12:03:16;;;;;;;24.30;18.07;;;28.40;99.90;;;;;;5044922;28;577520;-70
2021/04/01 12:05:48;;;;;;;19.40;17.27;;;28.40;99.90;;;;;;5065738;28;20189;-69
2021/04/01 12:08:13;;;;;;;19.63;17.43;;;28.00;99.90;;;;;;5065311;28;20407;-69
2021/04/01 12:10:40;;;;;;;20.57;17.57;;;27.70;99.90;;;;;;5062614;28;22121;-65
2021/04/01 12:13:06;;;;;;;21.33;17.90;;;27.00;99.90;;;;;;5063713;28;20169;-65
2021/04/01 12:15:40;;;;;;;21.30;16.60;;;26.50;99.90;;;;;;5063819;28;20480;-64
2021/04/01 12:18:08;;;;;;;21.17;17.03;;;25.90;99.90;;;;;;5064274;28;20411;-63
2021/04/01 12:20:35;;;;;;;24.73;18.20;;;25.40;99.90;;;;;;5065023;28;20459;-65
2021/04/01 12:23:16;;;;;;;25.17;17.60;;;25.00;99.90;;;;;;5063135;28;20465;-63
2021/04/01 12:25:43;;;;;;;21.67;17.20;;;24.70;99.90;;;;;;5063313;28;20544;-64
2021/04/01 12:28:21;;;;;;;19.90;17.07;;;24.30;99.90;;;;;;5066880;28;20425;-64
2021/04/01 12:30:49;;;;;;;25.63;17.70;;;24.10;99.90;;;;;;5064896;28;20524;-64
2021/04/01 12:33:19;;;;;;;23.57;17.30;;;23.80;99.90;;;;;;5061338;28;21172;-64
2021/04/01 12:35:59;;;;;;;22.33;17.53;;;23.40;99.90;;;;;;5067893;28;20469;-64
2021/04/01 12:38:39;;;;;;;21.67;17.33;;;23.20;99.90;;;;;;5058066;28;20435;-64
2021/04/01 12:41:20;;;;;;;22.97;18.10;;;23.10;99.90;;;;;;5065452;28;20423;-64
2021/04/01 12:43:46;;;;;;;22.00;17.73;;;22.80;99.90;;;;;;5060809;28;20482;-64
2021/04/01 12:46:11;;;;;;;24.60;17.90;;;22.80;99.90;;;;;;5065359;28;20459;-64
2021/04/01 12:48:38;;;;;;;20.50;16.80;;;22.70;99.90;;;;;;5067724;28;20181;-64
2021/04/01 12:51:05;;;;;;;21.60;16.63;;;22.80;99.90;;;;;;5065729;28;20181;-63
2021/04/01 12:53:31;;;;;;;21.03;17.40;;;22.90;99.90;;;;;;5066644;28;20439;-64
2021/04/01 12:56:21;;;;;;;19.73;15.57;;;23.30;99.90;;;;;;5066214;28;20961;-64
2021/04/01 12:58:48;;;;;;;21.17;16.90;;;24.00;99.90;;;;;;5065195;28;20478;-64
2021/04/01 13:01:34;;;;;;;22.30;17.67;;;24.60;99.90;;;;;;5065377;28;20434;-64
2021/04/01 13:04:08;;;;;;;23.27;18.00;;;25.00;99.90;;;;;;5068014;28;20463;-64
2021/04/01 13:11:46;;;;;;;20.97;17.90;;;26.60;99.90;;;;;;5068790;28;20447;-63
2021/04/01 13:14:12;;;;;;;24.00;19.10;;;26.60;99.90;;;;;;5068529;28;20473;-63
2021/04/01 13:16:39;;;;;;;28.13;19.67;;;26.30;99.90;;;;;;5059964;28;20555;-62
2021/04/01 13:19:08;;;;;;;23.07;18.83;;;26.30;99.90;;;;;;5074956;28;20185;-64
2021/04/01 13:22:22;;;;;;;20.60;17.07;;;26.00;99.90;;;;;;5071425;28;20470;-62
2021/04/01 13:24:30;;;;;;;22.43;18.70;;;26.00;99.90;;;;;;5067981;28;20430;-67
2021/04/01 13:26:57;;;;;;;23.93;18.67;;;26.50;99.90;;;;;;5069655;28;20437;-67
2021/04/01 13:29:25;;;;;;;24.33;18.53;;;26.60;99.90;;;;;;5070719;28;20420;-67
2021/04/01 13:32:03;;;;;;;21.87;19.47;;;26.60;99.90;;;;;;5070154;28;20939;-68
2021/04/01 13:37:41;;;;;;;22.83;17.03;;;25.90;99.90;;;;;;5025891;28;20844;-68
2021/04/01 13:40:12;;;;;;;22.53;17.83;;;25.60;99.90;;;;;;5027416;28;20428;-68
2021/04/01 13:42:49;;;;;;;23.73;19.33;;;25.60;99.90;;;;;;5027934;28;20469;-68
2021/04/01 13:45:18;;;;;;;26.93;21.87;;;25.70;99.90;;;;;;5027298;28;20477;-68
2021/04/01 13:47:46;;;;;;;21.70;18.57;;;25.90;99.90;;;;;;5025607;28;20439;-67
2021/04/01 13:50:18;;;;;;;22.17;17.97;;;26.00;99.90;;;;;;5027672;28;20429;-68
2021/04/01 13:56:05;;;;;;;23.27;19.60;;;26.50;99.90;;;;;;5026475;28;20452;-67
2021/04/01 14:09:47;;;;;;;24.50;20.50;;;27.50;99.90;;;;;;5065554;28;20430;-68
2021/04/01 14:12:18;;;;;;;25.07;20.80;;;27.00;99.90;;;;;;5050253;28;20424;-68
2021/04/01 14:14:43;;;;;;;24.57;19.50;;;26.00;99.90;;;;;;5062963;28;20816;-68
2021/04/01 14:17:09;;;;;;;25.20;20.30;;;25.50;99.90;;;;;;5069191;28;20431;-68
2021/04/01 14:19:38;;;;;;;27.87;20.40;;;24.90;99.90;;;;;;5070150;28;20177;-68
2021/04/01 14:22:03;;;;;;;23.20;18.87;;;24.50;99.90;;;;;;5067783;28;20193;-67
2021/04/01 14:24:32;;;;;;;22.70;18.60;;;24.10;99.90;;;;;;5070151;28;20412;-71
2021/04/01 14:27:10;;;;;;;23.60;17.80;;;23.60;99.90;;;;;;5066094;28;20185;-72
2021/04/01 14:29:37;;;;;;;26.70;18.60;;;23.20;99.90;;;;;;5050336;28;20447;-72
2021/04/01 14:32:04;;;;;;;24.67;19.23;;;23.10;99.90;;;;;;5050309;28;20412;-71
2021/04/01 14:34:32;;;;;;;24.50;19.30;;;23.10;99.90;;;;;;5072189;28;20427;-71
2021/04/01 14:37:00;;;;;;;30.10;20.63;;;23.10;99.90;;;;;;5064877;28;20423;-72
2021/04/01 14:39:29;;;;;;;34.83;19.53;;;23.20;99.90;;;;;;5069570;28;20423;-71
2021/04/01 14:42:08;;;;;;;24.87;20.20;;;23.30;99.90;;;;;;5068278;28;20451;-71